Time;durP1;ratioP1;P1;durP2;ratioP2;P2;SDS_P1;SDS_P2;PMS_P1;PMS_P2;Temp;Humidity;BMP_temperature;BMP_pressure;BME280_temperature;BME280_humidity;BME280_pressure;Samples;Min_cycle;Max_cycle;Signal;HPM_P1;HPM_P2
2022/07/02 03:01:59;;;;;;;3.10;0.85;;;11.80;99.90;;;;;;5545415;23;88609;-73
2022/07/02 03:04:24;;;;;;;2.47;0.90;;;11.80;99.90;;;;;;4924074;28;87433;-73
2022/07/02 03:06:50;;;;;;;4.22;0.98;;;11.80;99.90;;;;;;4924024;28;87017;-72
2022/07/02 03:09:16;;;;;;;2.38;0.90;;;11.80;99.90;;;;;;4927861;28;87182;-72
2022/07/02 03:11:42;;;;;;;5.30;1.10;;;11.80;99.90;;;;;;4926244;28;90146;-73
2022/07/02 03:14:07;;;;;;;3.63;0.95;;;11.90;99.90;;;;;;4924117;28;88260;-72
2022/07/02 03:16:33;;;;;;;4.15;0.73;;;11.90;99.90;;;;;;4925858;28;87027;-71
2022/07/02 03:18:59;;;;;;;2.72;0.47;;;11.90;99.90;;;;;;4926146;28;87343;-70
2022/07/02 03:21:24;;;;;;;2.88;0.85;;;11.90;99.90;;;;;;4928190;28;87059;-74
2022/07/02 03:23:51;;;;;;;1.58;0.70;;;12.00;99.90;;;;;;4928077;28;87836;-73
2022/07/02 03:26:17;;;;;;;2.20;0.93;;;11.90;99.90;;;;;;4923142;28;87257;-72
2022/07/02 03:28:42;;;;;;;2.40;0.80;;;11.80;99.90;;;;;;4927132;28;86533;-72
2022/07/02 03:31:08;;;;;;;2.80;0.93;;;11.80;99.90;;;;;;4931848;28;87358;-71
2022/07/02 03:33:34;;;;;;;2.22;1.10;;;11.80;99.90;;;;;;4936756;28;87850;-72
2022/07/02 03:36:00;;;;;;;3.60;1.00;;;11.80;99.90;;;;;;4930592;28;87961;-71
2022/07/02 03:38:25;;;;;;;2.13;0.70;;;11.80;99.90;;;;;;4934251;28;87201;-73
2022/07/02 03:40:51;;;;;;;4.28;0.68;;;11.80;99.90;;;;;;4936044;28;89408;-74
2022/07/02 03:43:17;;;;;;;4.72;0.47;;;11.90;99.90;;;;;;4935001;28;88075;-70
2022/07/02 03:45:42;;;;;;;3.35;0.85;;;11.90;99.90;;;;;;4935403;28;86974;-72
2022/07/02 03:48:08;;;;;;;2.00;0.90;;;11.80;99.90;;;;;;4931238;28;89631;-71
2022/07/02 03:50:37;;;;;;;2.22;0.82;;;11.80;99.90;;;;;;4936301;28;88161;-74
2022/07/02 03:53:04;;;;;;;6.60;1.13;;;11.80;99.90;;;;;;4937349;28;86728;-73
2022/07/02 03:55:30;;;;;;;3.50;1.17;;;11.90;99.90;;;;;;4935078;28;87105;-71
2022/07/02 03:57:56;;;;;;;1.55;0.47;;;12.10;99.90;;;;;;4933468;28;87120;-72
2022/07/02 04:00:21;;;;;;;3.33;0.70;;;12.40;99.90;;;;;;4934814;28;88606;-72
2022/07/02 04:02:47;;;;;;;3.78;0.55;;;12.90;99.90;;;;;;4926451;28;87790;-72
2022/07/02 04:05:13;;;;;;;2.25;0.70;;;13.40;99.90;;;;;;4930171;28;87785;-72
2022/07/02 04:07:38;;;;;;;1.65;0.60;;;14.00;99.90;;;;;;4930926;28;87226;-73
2022/07/02 04:10:05;;;;;;;2.58;0.60;;;14.60;99.90;;;;;;4930491;28;87772;-72
2022/07/02 04:12:31;;;;;;;5.85;0.60;;;15.00;99.90;;;;;;4931632;28;87068;-72
2022/07/02 04:14:57;;;;;;;3.97;0.88;;;14.90;99.90;;;;;;4929706;28;87043;-75
2022/07/02 04:17:23;;;;;;;4.03;0.70;;;14.90;99.90;;;;;;4927121;28;86438;-73
2022/07/02 04:19:49;;;;;;;6.07;1.00;;;14.90;99.90;;;;;;4931634;28;88963;-75
2022/07/02 04:22:15;;;;;;;3.13;0.70;;;15.10;99.90;;;;;;4924549;28;87119;-76
2022/07/02 04:24:40;;;;;;;3.40;1.10;;;15.40;99.90;;;;;;4930240;28;88146;-72
2022/07/02 04:27:06;;;;;;;2.45;1.05;;;15.70;99.90;;;;;;4924119;28;86899;-73
2022/07/02 04:29:32;;;;;;;1.67;0.50;;;15.70;99.90;;;;;;4930754;28;87710;-74
2022/07/02 04:31:57;;;;;;;2.70;0.40;;;16.30;99.90;;;;;;4929750;28;88225;-74
2022/07/02 04:34:23;;;;;;;2.17;0.60;;;16.50;99.90;;;;;;4926157;28;86497;-72
2022/07/02 04:36:49;;;;;;;2.42;0.63;;;17.10;99.90;;;;;;4930784;28;87051;-71
2022/07/02 04:39:14;;;;;;;1.15;0.70;;;17.10;97.90;;;;;;4926146;28;87545;-72
2022/07/02 04:41:40;;;;;;;1.45;0.55;;;17.10;97.50;;;;;;4924878;28;87499;-73
2022/07/02 04:44:06;;;;;;;4.40;1.00;;;17.20;96.50;;;;;;4929499;28;87116;-76
2022/07/02 04:46:32;;;;;;;2.85;0.60;;;17.30;96.30;;;;;;4926284;28;87023;-75
2022/07/02 04:48:58;;;;;;;2.00;0.75;;;17.80;95.30;;;;;;4928672;28;88171;-73
2022/07/02 04:51:24;;;;;;;3.95;0.90;;;18.30;93.00;;;;;;4931781;28;88292;-73
2022/07/02 04:53:49;;;;;;;3.10;1.08;;;18.40;93.50;;;;;;4930118;28;87908;-74
2022/07/02 04:56:15;;;;;;;3.67;0.98;;;18.90;91.60;;;;;;4930779;28;87846;-73
2022/07/02 04:58:41;;;;;;;2.70;0.90;;;19.70;88.80;;;;;;4937153;28;87163;-74
2022/07/02 05:01:06;;;;;;;1.40;0.70;;;20.10;88.20;;;;;;4927895;28;88671;-75
2022/07/02 05:03:32;;;;;;;1.83;0.98;;;20.80;83.50;;;;;;4934533;28;87688;-73
2022/07/02 05:05:58;;;;;;;2.50;0.55;;;21.30;79.20;;;;;;4931156;28;86143;-75
2022/07/02 05:08:26;;;;;;;4.18;0.85;;;21.20;76.50;;;;;;4932524;28;88218;-72
2022/07/02 05:10:52;;;;;;;6.15;1.17;;;21.20;77.90;;;;;;4927545;28;87139;-73
2022/07/02 05:13:18;;;;;;;1.33;0.68;;;21.70;74.70;;;;;;4928631;28;88168;-73
2022/07/02 05:15:45;;;;;;;3.80;0.95;;;21.40;76.20;;;;;;4935957;28;87155;-72
2022/07/02 05:18:11;;;;;;;2.95;1.02;;;21.80;74.10;;;;;;4928077;28;86874;-73
2022/07/02 05:20:37;;;;;;;2.70;0.88;;;22.40;70.70;;;;;;4932087;28;87942;-72
2022/07/02 05:23:03;;;;;;;3.35;0.80;;;21.30;73.40;;;;;;4926259;28;87504;-75
2022/07/02 05:25:28;;;;;;;2.50;0.73;;;21.20;74.00;;;;;;4928651;28;86903;-76
2022/07/02 05:27:54;;;;;;;9.50;1.00;;;21.30;75.30;;;;;;4928248;28;87433;-73
2022/07/02 05:30:20;;;;;;;2.90;1.13;;;21.90;73.20;;;;;;4938595;28;86805;-72
2022/07/02 05:32:46;;;;;;;2.80;1.00;;;22.20;71.20;;;;;;4925956;28;87945;-72
2022/07/02 05:35:11;;;;;;;1.40;0.93;;;22.60;72.00;;;;;;4930886;28;86906;-72
2022/07/02 05:37:37;;;;;;;1.85;0.82;;;22.90;70.30;;;;;;4936733;28;87851;-71
2022/07/02 05:40:04;;;;;;;3.88;1.10;;;22.90;69.30;;;;;;4928911;28;88741;-74
2022/07/02 05:42:30;;;;;;;1.95;0.68;;;23.30;68.00;;;;;;4939175;28;87488;-74
2022/07/02 05:44:55;;;;;;;2.08;1.02;;;24.00;65.90;;;;;;4930104;28;87265;-76
2022/07/02 05:47:21;;;;;;;2.00;0.93;;;24.70;64.20;;;;;;4926528;28;87604;-74
2022/07/02 05:49:47;;;;;;;5.35;1.17;;;24.90;63.90;;;;;;4936150;28;87709;-73
2022/07/02 05:52:17;;;;;;;5.95;1.60;;;25.60;61.60;;;;;;4926432;28;87158;-75
2022/07/02 05:54:45;;;;;;;3.35;1.67;;;25.90;59.10;;;;;;4938296;28;86646;-75
2022/07/02 05:57:11;;;;;;;2.90;0.95;;;25.30;59.90;;;;;;4936716;28;86973;-74
2022/07/02 05:59:37;;;;;;;4.30;1.52;;;25.60;59.10;;;;;;4931190;28;87373;-73
2022/07/02 06:02:04;;;;;;;3.33;1.10;;;26.50;59.70;;;;;;4929505;28;87825;-75
2022/07/02 06:04:31;;;;;;;1.52;0.32;;;28.50;54.30;;;;;;4931318;28;87292;-74
2022/07/02 06:09:45;;;;;;;2.95;1.52;;;28.00;55.70;;;;;;4932048;28;87009;-73
2022/07/02 06:12:11;;;;;;;7.60;1.50;;;29.10;51.70;;;;;;4937166;28;86974;-72
2022/07/02 06:14:37;;;;;;;3.20;1.23;;;28.00;53.60;;;;;;4941181;28;87029;-74
2022/07/02 06:17:03;;;;;;;8.90;1.52;;;27.40;53.70;;;;;;4931534;28;87167;-73
2022/07/02 06:19:28;;;;;;;1.88;1.48;;;28.00;54.60;;;;;;4930577;28;86794;-75
2022/07/02 06:21:54;;;;;;;5.57;1.02;;;28.30;51.80;;;;;;4931980;28;87227;-73
2022/07/02 06:24:20;;;;;;;3.13;1.58;;;28.50;53.00;;;;;;4935709;28;87299;-73
2022/07/02 06:26:45;;;;;;;2.17;1.42;;;30.50;49.80;;;;;;4927093;28;88167;-73
2022/07/02 06:29:11;;;;;;;2.22;1.52;;;29.70;49.10;;;;;;4932989;28;87200;-73
2022/07/02 06:31:37;;;;;;;1.60;1.27;;;29.10;50.60;;;;;;4925068;28;87021;-73
2022/07/02 06:34:04;;;;;;;3.80;1.52;;;29.80;49.90;;;;;;4929846;28;86839;-75
2022/07/02 06:36:30;;;;;;;1.38;0.63;;;31.40;47.40;;;;;;4928196;28;87540;-72
2022/07/02 06:38:56;;;;;;;2.88;2.22;;;30.90;47.80;;;;;;4923223;28;87356;-74
2022/07/02 06:44:07;;;;;;;2.28;1.73;;;30.00;48.70;;;;;;4924012;28;86407;-76
2022/07/02 06:46:34;;;;;;;1.50;0.70;;;30.10;48.50;;;;;;4926553;28;87546;-73
2022/07/02 06:49:00;;;;;;;2.60;1.90;;;30.10;46.70;;;;;;4931435;28;87831;-75
2022/07/02 06:51:26;;;;;;;2.72;1.55;;;29.00;50.20;;;;;;4931898;28;87965;-75
2022/07/02 06:53:53;;;;;;;1.70;1.45;;;31.60;47.70;;;;;;4931244;28;87008;-75
2022/07/02 06:56:20;;;;;;;4.78;2.67;;;33.60;46.30;;;;;;4930039;28;87080;-75
2022/07/02 06:58:45;;;;;;;4.40;2.35;;;36.00;40.90;;;;;;4931814;28;86993;-75
2022/07/02 07:01:11;;;;;;;16.08;10.48;;;36.60;40.00;;;;;;4930305;28;87061;-75
2022/07/02 07:03:37;;;;;;;6.85;4.03;;;35.90;38.60;;;;;;4932518;28;87056;-76
2022/07/02 07:06:02;;;;;;;3.63;2.67;;;35.70;40.10;;;;;;4927164;28;87878;-75
2022/07/02 07:08:28;;;;;;;5.07;2.33;;;36.30;39.10;;;;;;4926641;28;87029;-74
2022/07/02 07:10:54;;;;;;;7.18;4.75;;;36.50;38.80;;;;;;4930914;28;86854;-75
2022/07/02 07:13:19;;;;;;;3.60;3.17;;;35.50;39.40;;;;;;4925763;28;87277;-74
2022/07/02 07:15:45;;;;;;;3.08;2.78;;;35.40;41.00;;;;;;4927837;28;87944;-74
2022/07/02 07:18:11;;;;;;;2.80;2.20;;;35.30;40.10;;;;;;4927881;28;88863;-74
2022/07/02 07:20:37;;;;;;;10.80;3.08;;;36.10;38.10;;;;;;4927088;28;87744;-76
2022/07/02 07:23:02;;;;;;;8.50;2.42;;;35.10;40.00;;;;;;4929441;28;87264;-75
2022/07/02 07:25:28;;;;;;;8.35;1.42;;;34.90;40.10;;;;;;4933071;28;87025;-74
2022/07/02 07:27:54;;;;;;;3.50;2.60;;;35.20;42.10;;;;;;4925208;28;87434;-75
2022/07/02 07:30:20;;;;;;;5.53;2.28;;;36.60;40.10;;;;;;4926225;28;87388;-78
2022/07/02 07:32:46;;;;;;;3.85;2.42;;;38.40;36.40;;;;;;4929275;28;86249;-74
2022/07/02 07:35:11;;;;;;;2.50;2.30;;;37.30;38.50;;;;;;4931491;28;88323;-76
2022/07/02 07:37:37;;;;;;;2.90;2.65;;;38.40;36.00;;;;;;4925620;28;87839;-74
2022/07/02 07:40:04;;;;;;;2.60;2.40;;;37.30;37.70;;;;;;4928240;28;87938;-74
2022/07/02 07:42:30;;;;;;;1.90;1.25;;;39.70;35.70;;;;;;4927747;28;86987;-73
2022/07/02 07:44:56;;;;;;;1.65;1.20;;;37.30;38.50;;;;;;4929575;28;88656;-74
2022/07/02 07:47:22;;;;;;;2.75;2.53;;;36.30;39.70;;;;;;4929190;28;86958;-74
2022/07/02 07:49:47;;;;;;;2.30;2.10;;;37.50;36.30;;;;;;4928334;28;87348;-74
2022/07/02 07:52:13;;;;;;;2.90;2.70;;;37.30;36.80;;;;;;4924694;28;87495;-74
2022/07/02 07:54:39;;;;;;;4.30;2.85;;;39.60;35.10;;;;;;4924567;28;87275;-75
2022/07/02 07:57:05;;;;;;;3.67;3.03;;;40.60;33.20;;;;;;4932125;28;87037;-75
2022/07/02 07:59:31;;;;;;;3.13;2.88;;;38.90;34.60;;;;;;4928414;28;86775;-75
2022/07/02 08:01:56;;;;;;;3.25;2.70;;;40.50;34.00;;;;;;4924717;28;86993;-74
2022/07/02 08:04:22;;;;;;;3.60;3.30;;;42.20;32.80;;;;;;4928784;28;87893;-74
2022/07/02 08:06:48;;;;;;;4.53;4.22;;;43.50;32.10;;;;;;4924705;28;88394;-74
2022/07/02 08:09:14;;;;;;;4.85;3.90;;;43.50;31.70;;;;;;4925447;28;87425;-75
2022/07/02 08:11:39;;;;;;;5.20;4.13;;;43.20;31.70;;;;;;4928409;28;86925;-74
2022/07/02 08:14:05;;;;;;;4.32;3.92;;;44.10;30.30;;;;;;4931556;28;88539;-75
2022/07/02 08:16:31;;;;;;;2.78;1.40;;;41.90;32.20;;;;;;4928744;28;86946;-74
2022/07/02 08:18:57;;;;;;;4.82;3.78;;;42.00;31.30;;;;;;4927013;28;87037;-74
2022/07/02 08:21:23;;;;;;;4.38;3.22;;;39.50;34.60;;;;;;4930869;28;86227;-74
2022/07/02 08:23:49;;;;;;;3.35;2.72;;;41.00;33.00;;;;;;4933931;28;87237;-74
2022/07/02 08:26:15;;;;;;;3.42;3.13;;;39.80;33.60;;;;;;4924773;28;87731;-74
2022/07/02 08:28:41;;;;;;;2.80;2.60;;;40.50;32.80;;;;;;4932292;28;88512;-74
2022/07/02 08:31:07;;;;;;;3.83;3.53;;;42.10;32.90;;;;;;4926811;28;87404;-74
2022/07/02 08:33:32;;;;;;;3.00;2.67;;;43.70;30.80;;;;;;4927667;28;88137;-77
2022/07/02 08:35:59;;;;;;;3.05;2.60;;;43.30;32.00;;;;;;4930034;28;87352;-74
2022/07/02 08:38:24;;;;;;;10.07;3.78;;;43.10;31.50;;;;;;4939937;28;87737;-74
2022/07/02 08:40:50;;;;;;;3.95;3.65;;;42.30;32.40;;;;;;4929907;28;87092;-74
2022/07/02 08:43:17;;;;;;;4.07;3.78;;;42.70;32.70;;;;;;4928718;28;87240;-74
2022/07/02 08:45:44;;;;;;;4.60;4.15;;;44.10;31.20;;;;;;4936076;28;87625;-74
2022/07/02 08:48:10;;;;;;;4.70;4.38;;;44.20;30.70;;;;;;4935176;28;87253;-74
2022/07/02 08:50:37;;;;;;;3.47;3.17;;;44.80;31.40;;;;;;4935914;28;87434;-74
2022/07/02 08:53:04;;;;;;;2.47;2.28;;;45.80;30.20;;;;;;4938038;28;88322;-74
2022/07/02 08:55:33;;;;;;;2.55;2.35;;;44.40;31.10;;;;;;4930746;28;87692;-74
2022/07/02 08:57:59;;;;;;;4.97;4.57;;;45.00;30.90;;;;;;4928850;28;87594;-75
2022/07/02 09:00:25;;;;;;;3.95;3.65;;;45.90;29.90;;;;;;4930241;28;87110;-74
2022/07/02 09:02:53;;;;;;;4.65;4.18;;;45.90;29.60;;;;;;4927067;28;87863;-74
2022/07/02 09:05:24;;;;;;;5.60;5.20;;;46.00;29.10;;;;;;4922463;28;87554;-75
2022/07/02 09:07:50;;;;;;;5.97;5.57;;;45.70;30.00;;;;;;4930016;28;87113;-74
2022/07/02 09:10:18;;;;;;;4.28;3.75;;;44.20;30.80;;;;;;4931750;28;86604;-74
2022/07/02 09:12:45;;;;;;;;;;;44.00;31.90;;;;;;4926230;28;87242;-74
2022/07/02 09:15:12;;;;;;;5.38;4.97;;;45.00;30.30;;;;;;4934128;28;87648;-73
2022/07/02 09:17:43;;;;;;;5.65;5.22;;;46.70;30.20;;;;;;4933773;28;88928;-74
2022/07/02 09:20:10;;;;;;;5.78;5.38;;;46.40;30.70;;;;;;4929195;28;88187;-73
2022/07/02 09:22:40;;;;;;;5.07;4.25;;;46.40;28.90;;;;;;4931230;28;89162;-73
2022/07/02 09:25:33;;;;;;;5.28;4.88;;;47.10;28.80;;;;;;4925517;28;86905;-73
2022/07/02 09:28:03;;;;;;;4.22;3.92;;;47.30;29.40;;;;;;4930322;28;87155;-75
2022/07/02 09:30:31;;;;;;;7.20;6.70;;;46.90;29.70;;;;;;4931266;28;86984;-73
2022/07/02 09:35:41;;;;;;;6.15;5.57;;;47.40;29.60;;;;;;4927692;28;86540;-73
2022/07/02 09:38:09;;;;;;;6.32;5.72;;;48.30;29.40;;;;;;4927946;28;86890;-74
2022/07/02 09:40:35;;;;;;;6.32;5.82;;;48.10;29.00;;;;;;4931337;28;87034;-74
2022/07/02 09:43:02;;;;;;;5.80;5.40;;;47.80;28.90;;;;;;4935429;28;88463;-74
2022/07/02 09:45:28;;;;;;;6.38;5.88;;;46.90;29.10;;;;;;4929321;28;89692;-73
2022/07/02 09:47:53;;;;;;;6.00;5.60;;;47.30;29.90;;;;;;4936776;28;87050;-74
2022/07/02 09:50:22;;;;;;;6.40;5.82;;;46.00;29.70;;;;;;4933492;28;87053;-73
2022/07/02 09:52:53;;;;;;;6.45;5.85;;;46.20;29.60;;;;;;4936260;28;87127;-72
2022/07/02 09:55:24;;;;;;;6.32;5.78;;;47.20;29.80;;;;;;4932104;28;88001;-72
2022/07/02 09:57:51;;;;;;;6.88;6.38;;;48.00;29.00;;;;;;4931262;28;87017;-75
2022/07/02 10:00:17;;;;;;;5.53;5.07;;;46.90;28.30;;;;;;4930034;28;86088;-74
2022/07/02 10:02:43;;;;;;;8.18;6.47;;;47.00;29.10;;;;;;4931687;28;89447;-75
2022/07/02 10:05:09;;;;;;;5.97;5.53;;;46.50;29.40;;;;;;4935176;28;87392;-74
2022/07/02 10:07:35;;;;;;;5.47;5.00;;;46.20;28.90;;;;;;4933458;28;88184;-74
2022/07/02 10:10:04;;;;;;;5.13;4.72;;;43.70;30.00;;;;;;4935192;28;86730;-73
2022/07/02 10:12:30;;;;;;;5.45;5.05;;;41.10;31.30;;;;;;4924347;28;87186;-74
2022/07/02 10:14:57;;;;;;;5.00;3.65;;;38.40;35.00;;;;;;4930250;28;87101;-75
2022/07/02 10:17:24;;;;;;;4.03;3.63;;;36.40;37.30;;;;;;4927324;28;89632;-73
2022/07/02 10:19:51;;;;;;;5.53;5.13;;;35.60;39.10;;;;;;4923201;28;87034;-72
2022/07/02 10:22:19;;;;;;;4.47;3.13;;;34.50;39.50;;;;;;4935066;28;87141;-72
2022/07/02 10:24:46;;;;;;;2.92;2.72;;;33.10;43.40;;;;;;4923684;28;87985;-73
2022/07/02 10:27:12;;;;;;;2.25;1.20;;;32.60;43.60;;;;;;4920903;28;87550;-75
2022/07/02 10:29:41;;;;;;;4.32;2.47;;;32.30;44.00;;;;;;4927491;28;86909;-72
2022/07/02 10:32:12;;;;;;;2.72;2.08;;;31.60;45.90;;;;;;4924855;28;89077;-73
2022/07/02 10:34:47;;;;;;;1.95;1.65;;;31.00;45.40;;;;;;4927617;28;88101;-71
2022/07/02 10:37:14;;;;;;;2.00;1.40;;;29.80;49.50;;;;;;4929658;28;87195;-75
2022/07/02 10:39:43;;;;;;;3.00;2.03;;;29.40;50.00;;;;;;4923080;28;87024;-72
2022/07/02 10:42:08;;;;;;;;;;;29.30;49.80;;;;;;4925719;28;88876;-74
2022/07/02 10:44:45;;;;;;;1.85;1.52;;;29.50;49.90;;;;;;4921483;28;88207;-72
2022/07/02 10:47:25;;;;;;;2.28;1.73;;;29.10;48.30;;;;;;4927701;28;87433;-73
2022/07/02 10:49:59;;;;;;;1.98;1.30;;;28.80;51.70;;;;;;4922341;28;86142;-76
2022/07/02 10:52:51;;;;;;;1.30;1.05;;;28.50;50.50;;;;;;4925929;28;88120;-72
2022/07/02 10:55:38;;;;;;;2.10;1.50;;;28.10;52.00;;;;;;4926083;28;87279;-71
2022/07/02 10:58:07;;;;;;;1.55;1.20;;;28.00;54.00;;;;;;4937470;28;87857;-71
2022/07/02 11:00:38;;;;;;;2.28;1.17;;;28.10;52.90;;;;;;4929473;28;87262;-72
2022/07/02 11:03:15;;;;;;;2.20;0.93;;;28.20;54.40;;;;;;4925147;28;87484;-72
2022/07/02 11:05:58;;;;;;;2.40;1.63;;;28.20;52.10;;;;;;4932701;28;87110;-71
2022/07/02 11:08:49;;;;;;;1.45;1.02;;;28.00;52.60;;;;;;4927648;28;87232;-71
2022/07/02 11:11:34;;;;;;;1.50;1.15;;;27.70;53.80;;;;;;4928424;28;86824;-73
2022/07/02 11:14:09;;;;;;;2.17;1.02;;;27.20;54.10;;;;;;4926651;28;87579;-72
2022/07/02 11:16:38;;;;;;;4.05;1.60;;;27.20;55.50;;;;;;4930210;28;88045;-72
2022/07/02 11:19:20;;;;;;;1.80;1.33;;;27.20;56.50;;;;;;4934779;28;87107;-71
2022/07/02 11:21:47;;;;;;;1.10;0.65;;;27.30;55.60;;;;;;4937284;28;87054;-73
2022/07/02 11:24:19;;;;;;;2.60;1.00;;;27.20;54.40;;;;;;4931617;28;88130;-75
2022/07/02 11:26:45;;;;;;;1.20;0.77;;;27.00;57.10;;;;;;4930010;28;87227;-73
2022/07/02 11:29:12;;;;;;;2.40;0.80;;;26.90;58.30;;;;;;4930576;28;88206;-75
2022/07/02 11:31:42;;;;;;;1.65;0.95;;;27.00;57.90;;;;;;4931547;28;86979;-71
2022/07/02 11:34:08;;;;;;;1.77;1.00;;;27.00;58.60;;;;;;4929308;28;89508;-71
2022/07/02 11:36:37;;;;;;;2.28;0.73;;;27.10;57.70;;;;;;4926446;28;87805;-71
2022/07/02 11:39:12;;;;;;;1.40;1.02;;;26.80;57.90;;;;;;4934523;28;87350;-71
2022/07/02 11:41:39;;;;;;;1.10;0.95;;;26.60;58.50;;;;;;4930781;28;86110;-72
2022/07/02 11:44:25;;;;;;;2.47;1.13;;;26.80;58.00;;;;;;4928615;28;87708;-73
2022/07/02 11:46:56;;;;;;;1.40;0.77;;;26.80;59.80;;;;;;4937059;28;86924;-74
2022/07/02 11:49:23;;;;;;;1.48;1.08;;;27.00;58.30;;;;;;4918098;28;88016;-72
2022/07/02 11:51:50;;;;;;;0.70;0.22;;;27.00;57.90;;;;;;4920544;28;87153;-72
2022/07/02 11:54:17;;;;;;;1.20;0.85;;;26.80;57.90;;;;;;4937303;28;87221;-72
2022/07/02 11:56:44;;;;;;;2.25;0.70;;;26.80;58.40;;;;;;4922098;28;87447;-72
2022/07/02 11:59:15;;;;;;;2.55;1.30;;;26.70;60.40;;;;;;4918588;28;87052;-71
2022/07/02 12:01:43;;;;;;;1.75;1.30;;;27.00;59.00;;;;;;4919012;28;87054;-73
2022/07/02 12:04:12;;;;;;;1.40;1.00;;;27.10;58.60;;;;;;4920085;28;88336;-70
2022/07/02 12:06:42;;;;;;;0.93;0.63;;;26.80;60.00;;;;;;4924203;28;87470;-73
2022/07/02 12:09:11;;;;;;;1.80;0.85;;;27.00;58.90;;;;;;4927662;28;86871;-72
2022/07/02 12:11:40;;;;;;;1.60;0.88;;;26.70;56.50;;;;;;4925768;28;87162;-73
2022/07/02 12:14:07;;;;;;;1.55;1.00;;;26.50;60.10;;;;;;4926136;28;87930;-73
2022/07/02 12:16:34;;;;;;;1.40;0.32;;;26.30;60.20;;;;;;4924839;28;87118;-71
2022/07/02 12:19:09;;;;;;;1.40;0.85;;;26.30;60.70;;;;;;4926837;28;86928;-72
2022/07/02 12:22:05;;;;;;;0.88;0.52;;;26.90;60.50;;;;;;4929743;28;87245;-76
2022/07/02 12:24:32;;;;;;;1.85;0.60;;;26.80;58.10;;;;;;4915248;28;89135;-70
2022/07/02 12:27:06;;;;;;;3.53;0.93;;;26.40;58.30;;;;;;4934308;28;87160;-71
2022/07/02 12:32:25;;;;;;;1.30;0.73;;;26.70;58.60;;;;;;4927841;28;86174;-71
2022/07/02 12:34:57;;;;;;;1.50;1.38;;;26.60;59.90;;;;;;4919867;28;87237;-70
2022/07/02 12:37:25;;;;;;;1.27;0.75;;;26.60;62.00;;;;;;4929706;28;87843;-72
2022/07/02 12:40:03;;;;;;;2.08;0.98;;;26.80;58.80;;;;;;4924257;28;88278;-71
2022/07/02 12:42:34;;;;;;;3.05;0.85;;;26.90;59.00;;;;;;4928983;28;87674;-71
2022/07/02 12:45:03;;;;;;;1.35;0.35;;;26.80;58.50;;;;;;4933665;28;87273;-73
2022/07/02 12:47:38;;;;;;;1.08;0.90;;;26.50;58.50;;;;;;4919992;28;87319;-74
2022/07/02 12:50:12;;;;;;;1.23;0.40;;;26.50;60.60;;;;;;4930664;28;86940;-72
2022/07/02 12:52:47;;;;;;;1.48;0.98;;;26.80;59.10;;;;;;4926908;28;86958;-75
2022/07/02 12:55:23;;;;;;;2.00;1.13;;;26.70;59.00;;;;;;4933386;28;87254;-71
2022/07/02 12:57:49;;;;;;;1.52;0.73;;;26.80;60.60;;;;;;4936329;28;86596;-72
2022/07/02 13:00:15;;;;;;;1.17;0.80;;;26.80;59.60;;;;;;4924020;28;87023;-70
2022/07/02 13:02:41;;;;;;;1.48;0.82;;;26.80;58.80;;;;;;4927130;28;87129;-71
2022/07/02 13:05:07;;;;;;;1.10;0.80;;;26.90;58.30;;;;;;4926957;28;87919;-71
2022/07/02 13:07:32;;;;;;;1.30;1.08;;;27.00;57.80;;;;;;4920122;28;87867;-72
2022/07/02 13:09:58;;;;;;;1.73;1.30;;;26.90;58.00;;;;;;4927600;28;87138;-70
2022/07/02 13:12:24;;;;;;;2.15;1.02;;;27.00;58.00;;;;;;4924923;28;86923;-72
2022/07/02 13:14:49;;;;;;;1.67;0.40;;;26.60;58.40;;;;;;4931950;28;88368;-74
2022/07/02 13:17:15;;;;;;;1.05;0.77;;;26.60;58.60;;;;;;4936664;28;87975;-71
2022/07/02 13:19:45;;;;;;;0.98;0.73;;;26.70;59.20;;;;;;4930009;28;86883;-76
2022/07/02 13:22:13;;;;;;;2.22;1.00;;;26.90;58.10;;;;;;4933768;28;86285;-73
2022/07/02 13:24:39;;;;;;;2.05;1.02;;;27.00;57.10;;;;;;4935450;28;86978;-72
2022/07/02 13:27:05;;;;;;;1.67;0.93;;;27.00;58.30;;;;;;4928347;28;87100;-72
2022/07/02 13:29:31;;;;;;;2.80;0.75;;;26.80;59.90;;;;;;4935910;28;87935;-71
2022/07/02 13:31:59;;;;;;;1.98;0.63;;;26.60;57.90;;;;;;4927379;28;86990;-72
2022/07/02 13:34:28;;;;;;;1.15;1.02;;;26.70;58.60;;;;;;4932064;28;87057;-71
2022/07/02 13:36:55;;;;;;;1.23;0.85;;;26.80;55.70;;;;;;4932124;28;87852;-73
2022/07/02 13:39:21;;;;;;;1.50;1.20;;;26.90;59.80;;;;;;4932657;28;86585;-71
2022/07/02 13:41:47;;;;;;;1.05;0.57;;;26.90;56.60;;;;;;4925091;28;87392;-71
2022/07/02 13:44:13;;;;;;;1.83;0.93;;;26.80;59.10;;;;;;4930984;28;86725;-74
2022/07/02 13:46:38;;;;;;;1.92;0.95;;;26.60;57.40;;;;;;4946622;28;87427;-73
2022/07/02 13:49:04;;;;;;;1.05;0.73;;;26.60;58.90;;;;;;4936902;28;87123;-75
2022/07/02 13:51:30;;;;;;;1.55;1.40;;;26.70;58.60;;;;;;4937292;28;86885;-71
2022/07/02 13:53:56;;;;;;;1.58;1.10;;;26.90;59.00;;;;;;4933285;28;88038;-70
2022/07/02 13:56:23;;;;;;;1.20;0.80;;;26.70;58.20;;;;;;4935210;28;88360;-70
2022/07/02 13:58:48;;;;;;;2.78;0.90;;;26.60;57.40;;;;;;4934347;28;87147;-73
2022/07/02 14:01:14;;;;;;;0.80;0.60;;;26.60;57.00;;;;;;4935417;28;87076;-74
2022/07/02 14:03:40;;;;;;;0.90;0.40;;;26.50;57.50;;;;;;4948226;28;87689;-70
2022/07/02 14:06:06;;;;;;;4.40;0.90;;;26.60;56.20;;;;;;4934013;28;87319;-74
2022/07/02 14:08:32;;;;;;;1.67;1.05;;;26.70;58.10;;;;;;4927072;28;87070;-71
2022/07/02 14:10:57;;;;;;;1.98;0.68;;;26.70;58.00;;;;;;4938457;28;86242;-70
2022/07/02 14:13:23;;;;;;;1.25;0.88;;;26.70;58.60;;;;;;4932045;28;87219;-70
2022/07/02 14:15:49;;;;;;;1.35;0.88;;;26.50;57.60;;;;;;4932823;28;87764;-70
2022/07/02 14:18:15;;;;;;;1.50;0.82;;;26.40;57.80;;;;;;4931641;28;87836;-70
2022/07/02 14:20:40;;;;;;;2.13;1.13;;;26.40;57.90;;;;;;4922089;28;87503;-75
2022/07/02 14:23:07;;;;;;;1.70;0.80;;;26.40;58.90;;;;;;4937319;28;87681;-74
2022/07/02 14:25:33;;;;;;;1.38;0.88;;;26.70;56.60;;;;;;4933367;28;87359;-70
2022/07/02 14:27:59;;;;;;;0.85;0.40;;;26.80;58.20;;;;;;4934310;28;87035;-70
2022/07/02 14:30:25;;;;;;;2.10;0.95;;;26.90;58.20;;;;;;4934774;28;87093;-71
2022/07/02 14:32:51;;;;;;;1.05;0.90;;;26.90;57.60;;;;;;4935824;28;88649;-71
2022/07/02 14:35:16;;;;;;;2.45;0.60;;;26.80;56.00;;;;;;4936902;28;86892;-74
2022/07/02 14:37:43;;;;;;;1.33;0.85;;;26.70;57.80;;;;;;4927740;28;87095;-70
2022/07/02 14:40:09;;;;;;;0.98;0.80;;;26.50;58.80;;;;;;4933009;28;87519;-72
2022/07/02 14:42:35;;;;;;;3.30;1.00;;;26.30;57.20;;;;;;4931646;28;88334;-72
2022/07/02 14:45:00;;;;;;;1.20;0.73;;;26.40;59.70;;;;;;4931279;28;88538;-70
2022/07/02 14:47:26;;;;;;;1.00;0.90;;;26.70;58.60;;;;;;4925851;28;87070;-69
2022/07/02 14:49:53;;;;;;;4.10;0.98;;;26.60;59.40;;;;;;4932243;28;87069;-72
2022/07/02 14:52:19;;;;;;;2.55;0.93;;;26.70;58.50;;;;;;4933732;28;87270;-75
2022/07/02 14:54:44;;;;;;;1.17;0.95;;;26.90;58.20;;;;;;4932069;28;87984;-73
2022/07/02 14:57:10;;;;;;;1.10;0.80;;;26.70;55.70;;;;;;4929387;28;87640;-75
2022/07/02 14:59:38;;;;;;;1.80;0.70;;;26.70;58.30;;;;;;4933899;28;86143;-71
2022/07/02 15:02:04;;;;;;;1.27;0.77;;;26.90;59.10;;;;;;4929868;28;88008;-71
2022/07/02 15:04:30;;;;;;;1.17;0.73;;;27.10;58.20;;;;;;4932078;28;87294;-72
2022/07/02 15:06:56;;;;;;;1.08;0.90;;;27.10;57.80;;;;;;4928672;28;87890;-73
2022/07/02 15:09:21;;;;;;;0.80;0.63;;;26.90;57.20;;;;;;4929240;28;86886;-74
2022/07/02 15:11:47;;;;;;;1.35;0.98;;;26.90;57.90;;;;;;4931664;28;88495;-70
2022/07/02 15:16:58;;;;;;;1.27;0.73;;;27.00;58.70;;;;;;4928205;28;87396;-73
2022/07/02 15:19:24;;;;;;;1.75;0.95;;;27.10;58.30;;;;;;4930419;28;87296;-72
2022/07/02 15:21:52;;;;;;;2.85;1.45;;;27.10;56.50;;;;;;4922657;28;87803;-71
2022/07/02 15:24:23;;;;;;;2.03;1.20;;;27.10;57.40;;;;;;4928971;28;87321;-73
2022/07/02 15:26:49;;;;;;;1.42;0.95;;;27.20;56.70;;;;;;4929818;28;87701;-73
2022/07/02 15:29:15;;;;;;;1.75;0.90;;;27.00;57.50;;;;;;4934532;28;87625;-73
2022/07/02 15:31:43;;;;;;;1.15;0.68;;;27.00;57.50;;;;;;4923878;28;88791;-71
2022/07/02 15:34:13;;;;;;;1.83;0.75;;;27.00;58.90;;;;;;4932100;28;88336;-73
2022/07/02 15:36:39;;;;;;;2.05;0.77;;;27.00;57.30;;;;;;4929180;28;87048;-71
2022/07/02 15:39:05;;;;;;;1.27;0.82;;;27.10;56.60;;;;;;4930353;28;87656;-71
2022/07/02 15:41:31;;;;;;;1.10;0.60;;;26.90;58.30;;;;;;4931799;28;88272;-70
2022/07/02 15:43:58;;;;;;;1.60;1.17;;;27.00;57.60;;;;;;4930779;28;87848;-72
2022/07/02 15:46:26;;;;;;;1.10;0.90;;;27.00;57.80;;;;;;4926834;28;86821;-76
2022/07/02 15:48:54;;;;;;;1.58;0.98;;;27.00;57.70;;;;;;4933032;28;86195;-71
2022/07/02 15:51:34;;;;;;;8.23;1.05;;;27.10;58.00;;;;;;4927096;28;88688;-73
2022/07/02 15:54:19;;;;;;;1.02;0.70;;;27.00;58.70;;;;;;4930375;28;88084;-71
2022/07/02 15:56:48;;;;;;;0.70;0.40;;;27.00;56.60;;;;;;4929252;28;88426;-74
2022/07/02 15:59:15;;;;;;;1.35;0.50;;;26.90;57.80;;;;;;4924040;28;87153;-72
2022/07/02 16:01:42;;;;;;;1.13;0.80;;;27.00;57.10;;;;;;4929320;28;87178;-72
2022/07/02 16:04:11;;;;;;;2.33;0.98;;;27.00;57.20;;;;;;4931286;28;87547;-69